Time;durP1;ratioP1;P1;durP2;ratioP2;P2;SDS_P1;SDS_P2;PMS_P1;PMS_P2;Temp;Humidity;BMP_temperature;BMP_pressure;BME280_temperature;BME280_humidity;BME280_pressure;Samples;Min_cycle;Max_cycle;Signal;HPM_P1;HPM_P2
2023/09/28 00:02:17;;;;;;;12.90;7.30;;;;;;;;;;103763;1292;545037;-77
2023/09/28 00:06:01;;;;;;;11.80;7.20;;;;;;;;;;103612;1291;547782;-83
2023/09/28 00:09:32;;;;;;;12.20;7.60;;;;;;;;;;103767;1293;544904;-83
2023/09/28 00:13:14;;;;;;;11.50;7.10;;;;;;;;;;103326;1308;548878;-76
2023/09/28 00:16:52;;;;;;;14.30;7.00;;;;;;;;;;103573;1291;547998;-81
2023/09/28 00:20:30;;;;;;;13.10;6.90;;;;;;;;;;103511;1292;547970;-82
2023/09/28 00:24:09;;;;;;;10.70;7.10;;;;;;;;;;103488;1295;548019;-77
2023/09/28 00:27:46;;;;;;;12.50;7.20;;;;;;;;;;103632;1292;548210;-81
2023/09/28 00:31:22;;;;;;;10.90;6.30;;;;;;;;;;103572;1293;547794;-77
2023/09/28 00:34:59;;;;;;;10.70;6.30;;;;;;;;;;103751;1288;548204;-81
2023/09/28 00:38:37;;;;;;;11.40;6.20;;;;;;;;;;103642;1292;548406;-80
2023/09/28 00:42:15;;;;;;;10.80;6.80;;;;;;;;;;103544;1292;547815;-81
2023/09/28 00:45:52;;;;;;;12.70;7.20;;;;;;;;;;104543;1284;547786;-82
2023/09/28 00:49:29;;;;;;;14.20;7.70;;;;;;;;;;103570;1292;547838;-77
2023/09/28 00:53:04;;;;;;;11.20;6.40;;;;;;;;;;103758;1292;545003;-77
2023/09/28 00:56:45;;;;;;;13.50;7.70;;;;;;;;;;103606;1292;547798;-77
2023/09/28 01:00:26;;;;;;;13.30;7.20;;;;;;;;;;103491;1292;548005;-77
2023/09/28 01:04:04;;;;;;;15.20;7.70;;;;;;;;;;103519;1295;547999;-79
2023/09/28 01:07:31;;;;;;;12.00;7.80;;;;;;;;;;104088;1285;544707;-80
2023/09/28 01:11:14;;;;;;;12.00;7.20;;;;;;;;;;103623;1292;547924;-77
2023/09/28 01:14:55;;;;;;;12.10;7.20;;;;;;;;;;103489;1294;547780;-82
2023/09/28 01:18:29;;;;;;;14.30;8.40;;;;;;;;;;104201;1285;547772;-82
2023/09/28 01:22:10;;;;;;;14.10;7.10;;;;;;;;;;103338;1294;547801;-80
2023/09/28 01:25:49;;;;;;;13.90;7.50;;;;;;;;;;103631;1289;547812;-83
2023/09/28 01:29:16;;;;;;;11.50;6.90;;;;;;;;;;103749;1292;544903;-80
2023/09/28 01:32:59;;;;;;;12.90;7.40;;;;;;;;;;103328;1295;547854;-81
2023/09/28 01:36:36;;;;;;;13.10;7.90;;;;;;;;;;103645;1293;547837;-82
2023/09/28 01:40:09;;;;;;;12.60;8.40;;;;;;;;;;104106;1288;545455;-77
2023/09/28 01:43:51;;;;;;;13.20;7.60;;;;;;;;;;103562;1293;547936;-76
2023/09/28 01:47:23;;;;;;;14.30;7.80;;;;;;;;;;103832;1292;544643;-76
2023/09/28 01:51:06;;;;;;;14.40;9.20;;;;;;;;;;103540;1292;547914;-80
2023/09/28 01:54:43;;;;;;;15.20;8.90;;;;;;;;;;103521;1292;547941;-80
2023/09/28 01:58:16;;;;;;;15.40;8.20;;;;;;;;;;103797;1292;544795;-79
2023/09/28 02:01:58;;;;;;;14.20;8.20;;;;;;;;;;103664;1292;548021;-77
2023/09/28 02:05:36;;;;;;;12.20;6.90;;;;;;;;;;103551;1290;547995;-82
2023/09/28 02:09:17;;;;;;;10.80;6.40;;;;;;;;;;103676;1292;547932;-76
2023/09/28 02:12:45;;;;;;;10.40;6.60;;;;;;;;;;103833;1296;544619;-77
2023/09/28 02:16:28;;;;;;;37.40;7.50;;;;;;;;;;103411;1292;547804;-81
2023/09/28 02:20:00;;;;;;;10.90;7.20;;;;;;;;;;104199;1289;545068;-79
2023/09/28 02:23:43;;;;;;;11.30;6.40;;;;;;;;;;103665;1292;547999;-77
2023/09/28 02:27:22;;;;;;;13.50;6.80;;;;;;;;;;103613;1292;547941;-82
2023/09/28 02:31:07;;;;;;;12.60;7.20;;;;;;;;;;103505;1294;548118;-77
2023/09/28 02:34:33;;;;;;;11.10;6.60;;;;;;;;;;103748;1292;544882;-77
2023/09/28 02:38:13;;;;;;;9.50;5.70;;;;;;;;;;103606;1289;548048;-78
2023/09/28 02:41:50;;;;;;;10.70;6.00;;;;;;;;;;103644;1292;547768;-78
2023/09/28 02:45:28;;;;;;;11.70;6.70;;;;;;;;;;103867;1288;548245;-81
2023/09/28 02:49:00;;;;;;;10.70;7.30;;;;;;;;;;103654;1291;545537;-79
2023/09/28 02:52:46;;;;;;;11.30;5.70;;;;;;;;;;103556;1292;548051;-83
2023/09/28 02:56:14;;;;;;;11.20;6.30;;;;;;;;;;103761;1289;545467;-81
2023/09/28 02:59:58;;;;;;;11.70;6.80;;;;;;;;;;103563;1292;545332;-83
2023/09/28 03:03:30;;;;;;;13.50;7.30;;;;;;;;;;104016;1295;545629;-79
2023/09/28 03:07:13;;;;;;;10.20;7.00;;;;;;;;;;103573;1291;548108;-82
2023/09/28 03:10:44;;;;;;;12.70;6.80;;;;;;;;;;103791;1295;545486;-80
2023/09/28 03:14:28;;;;;;;12.80;6.40;;;;;;;;;;103564;1292;548000;-78
2023/09/28 03:18:05;;;;;;;13.70;6.90;;;;;;;;;;103516;1291;548060;-80
2023/09/28 03:21:44;;;;;;;12.00;7.10;;;;;;;;;;103830;1289;547981;-83
2023/09/28 03:25:21;;;;;;;14.70;8.40;;;;;;;;;;103754;1289;546050;-81
2023/09/28 03:28:57;;;;;;;13.30;7.30;;;;;;;;;;103686;1292;547938;-77
2023/09/28 03:32:35;;;;;;;12.60;6.60;;;;;;;;;;103483;1296;548018;-81
2023/09/28 03:36:12;;;;;;;12.30;6.90;;;;;;;;;;103700;1292;546366;-80
2023/09/28 03:39:50;;;;;;;12.50;7.50;;;;;;;;;;103599;1293;548423;-77
2023/09/28 03:43:22;;;;;;;11.20;7.60;;;;;;;;;;104117;1292;544856;-77
2023/09/28 03:46:59;;;;;;;13.60;7.10;;;;;;;;;;104528;1282;545578;-81
2023/09/28 03:50:43;;;;;;;10.90;6.40;;;;;;;;;;103655;1291;545909;-79
2023/09/28 03:54:20;;;;;;;10.60;6.50;;;;;;;;;;103727;1288;547893;-81
2023/09/28 03:57:51;;;;;;;10.50;6.60;;;;;;;;;;103723;1292;544984;-82
2023/09/28 04:01:35;;;;;;;12.10;7.80;;;;;;;;;;103515;1292;548096;-77
2023/09/28 04:05:06;;;;;;;12.00;7.50;;;;;;;;;;103804;1289;546009;-77
2023/09/28 04:08:44;;;;;;;12.40;8.00;;;;;;;;;;103785;1292;545694;-83
2023/09/28 04:12:28;;;;;;;16.10;7.70;;;;;;;;;;103631;1289;548113;-77
2023/09/28 04:16:05;;;;;;;15.40;7.50;;;;;;;;;;103537;1296;548001;-80
2023/09/28 04:19:36;;;;;;;13.70;7.80;;;;;;;;;;104013;1290;545781;-78
2023/09/28 04:23:16;;;;;;;11.90;6.80;;;;;;;;;;103629;1295;545502;-77
2023/09/28 04:26:52;;;;;;;13.30;8.00;;;;;;;;;;103749;1294;544861;-77
2023/09/28 04:30:36;;;;;;;14.00;8.00;;;;;;;;;;103513;1292;547770;-82
2023/09/28 04:34:13;;;;;;;13.40;7.80;;;;;;;;;;103554;1303;548218;-82
2023/09/28 04:37:49;;;;;;;12.70;7.30;;;;;;;;;;103467;1294;548054;-77
2023/09/28 04:41:27;;;;;;;12.90;7.70;;;;;;;;;;103533;1292;548134;-80
2023/09/28 04:44:59;;;;;;;14.30;9.10;;;;;;;;;;103709;1292;545351;-78
2023/09/28 04:48:42;;;;;;;13.60;8.10;;;;;;;;;;103585;1292;547876;-81
2023/09/28 04:52:14;;;;;;;13.90;8.00;;;;;;;;;;103899;1289;545144;-80
2023/09/28 04:55:57;;;;;;;14.30;7.20;;;;;;;;;;103457;1295;548103;-82
2023/09/28 04:59:29;;;;;;;14.80;7.70;;;;;;;;;;103747;1292;544852;-79
2023/09/28 05:03:06;;;;;;;16.30;8.30;;;;;;;;;;104221;1285;544724;-79
2023/09/28 05:06:43;;;;;;;13.60;7.60;;;;;;;;;;104114;1289;546237;-78
2023/09/28 05:10:26;;;;;;;16.10;7.90;;;;;;;;;;103672;1289;548020;-78
2023/09/28 05:13:59;;;;;;;14.40;7.90;;;;;;;;;;103768;1289;544723;-82
2023/09/28 05:17:42;;;;;;;15.70;7.20;;;;;;;;;;103587;1290;547975;-80
2023/09/28 05:21:15;;;;;;;17.00;8.00;;;;;;;;;;103856;1292;546554;-80
2023/09/28 05:24:56;;;;;;;13.20;8.10;;;;;;;;;;103631;1291;548005;-77
2023/09/28 05:28:34;;;;;;;16.40;7.60;;;;;;;;;;103639;1289;547791;-79
2023/09/28 05:32:06;;;;;;;16.00;8.10;;;;;;;;;;103675;1292;544896;-81
2023/09/28 05:35:43;;;;;;;18.60;8.00;;;;;;;;;;103903;1288;544997;-82
2023/09/28 05:39:27;;;;;;;17.20;8.60;;;;;;;;;;103590;1291;547797;-77
2023/09/28 05:42:58;;;;;;;23.70;9.60;;;;;;;;;;103600;1295;545006;-78
2023/09/28 05:46:41;;;;;;;15.70;8.30;;;;;;;;;;103535;1291;547794;-79
2023/09/28 05:50:13;;;;;;;15.70;8.30;;;;;;;;;;104271;1290;544786;-81
2023/09/28 05:53:56;;;;;;;23.10;8.60;;;;;;;;;;103961;1292;547815;-80
2023/09/28 05:57:34;;;;;;;27.00;9.70;;;;;;;;;;104172;1292;547447;-83
2023/09/28 06:01:06;;;;;;;33.40;12.20;;;;;;;;;;104232;1292;544912;-83
2023/09/28 06:04:49;;;;;;;25.50;9.90;;;;;;;;;;104173;1290;547942;-82
2023/09/28 06:08:26;;;;;;;28.20;9.60;;;;;;;;;;103622;1297;547995;-78
2023/09/28 06:11:57;;;;;;;19.10;8.30;;;;;;;;;;104043;1290;544807;-77
2023/09/28 06:15:46;;;;;;;24.60;8.40;;;;;;;;;;104188;1291;548002;-77
2023/09/28 06:19:23;;;;;;;25.30;8.90;;;;;;;;;;103910;1292;547962;-79
2023/09/28 06:23:00;;;;;;;20.50;7.90;;;;;;;;;;103642;1295;548100;-78
2023/09/28 06:26:38;;;;;;;18.70;8.00;;;;;;;;;;103901;1292;547598;-78
2023/09/28 06:30:15;;;;;;;23.00;12.20;;;;;;;;;;103449;1295;548339;-80
2023/09/28 06:33:53;;;;;;;24.70;9.30;;;;;;;;;;103823;1292;548009;-77
2023/09/28 06:37:24;;;;;;;15.10;7.70;;;;;;;;;;104020;1288;545314;-78
2023/09/28 06:41:08;;;;;;;19.20;7.70;;;;;;;;;;103628;1292;547773;-77
2023/09/28 06:44:35;;;;;;;23.00;7.90;;;;;;;;;;103994;1289;544930;-82
2023/09/28 06:48:27;;;;;;;19.40;8.50;;;;;;;;;;104506;1283;547996;-82
2023/09/28 06:52:01;;;;;;;27.70;9.20;;;;;;;;;;103529;1292;548069;-77
2023/09/28 06:55:39;;;;;;;31.40;9.40;;;;;;;;;;103576;1292;547803;-79
2023/09/28 06:59:13;;;;;;;34.40;9.30;;;;;;;;;;103743;1288;548145;-76
2023/09/28 07:02:49;;;;;;;34.30;9.60;;;;;;;;;;103818;1288;544941;-77
2023/09/28 07:06:31;;;;;;;25.50;9.20;;;;;;;;;;103780;1292;547800;-77
2023/09/28 07:10:10;;;;;;;39.30;10.90;;;;;;;;;;103655;1293;547789;-80
2023/09/28 07:13:46;;;;;;;41.70;10.00;;;;;;;;;;103516;1297;547949;-81
2023/09/28 07:17:18;;;;;;;23.00;9.20;;;;;;;;;;103842;1292;545051;-79
2023/09/28 07:20:55;;;;;;;19.50;9.40;;;;;;;;;;103841;1290;545226;-78
2023/09/28 07:34:56;;;;;;;14.50;6.20;;;;;;;;;;104723;1285;549794;-79
2023/09/28 07:37:54;;;;;;;10.70;5.60;;;;;;;;;;103576;1292;548212;-79
2023/09/28 07:41:26;;;;;;;10.60;5.40;;;;;;;;;;104104;1289;544775;-77
2023/09/28 07:45:04;;;;;;;12.30;5.70;;;;;;;;;;104098;1289;544964;-81
2023/09/28 07:48:46;;;;;;;11.40;5.30;;;;;;;;;;103885;1289;545537;-79
2023/09/28 07:52:24;;;;;;;13.20;5.30;;;;;;;;;;103633;1291;548611;-76
2023/09/28 07:56:01;;;;;;;11.80;5.30;;;;;;;;;;103635;1289;547796;-80
2023/09/28 07:59:36;;;;;;;11.50;5.50;;;;;;;;;;103836;1290;547915;-76
2023/09/28 08:03:11;;;;;;;11.30;5.10;;;;;;;;;;103801;1290;545020;-77
2023/09/28 08:07:13;;;;;;;12.60;5.50;;;;;;;;;;104005;1295;548137;-81
2023/09/28 08:10:33;;;;;;;15.20;6.10;;;;;;;;;;103610;1291;548116;-79
2023/09/28 08:14:05;;;;;;;11.00;5.90;;;;;;;;;;104225;1285;544938;-78
2023/09/28 08:17:44;;;;;;;11.60;4.90;;;;;;;;;;103406;1295;545520;-78
2023/09/28 08:21:24;;;;;;;17.50;5.10;;;;;;;;;;103610;1292;547978;-78
2023/09/28 08:25:01;;;;;;;15.60;5.60;;;;;;;;;;103714;1291;547833;-77
2023/09/28 08:28:38;;;;;;;23.50;6.10;;;;;;;;;;103575;1295;547752;-77
2023/09/28 08:32:16;;;;;;;14.50;4.80;;;;;;;;;;103569;1290;547819;-78
2023/09/28 08:35:54;;;;;;;15.20;5.40;;;;;;;;;;103645;1292;548010;-79
2023/09/28 08:39:25;;;;;;;19.50;4.70;;;;;;;;;;103951;1292;545038;-80
2023/09/28 08:43:11;;;;;;;13.20;4.80;;;;;;;;;;104113;1292;548009;-78
2023/09/28 08:46:43;;;;;;;15.10;5.50;;;;;;;;;;104057;1290;545127;-82
2023/09/28 08:50:27;;;;;;;12.80;5.10;;;;;;;;;;104163;1289;547853;-81
2023/09/28 08:54:05;;;;;;;12.20;5.80;;;;;;;;;;104208;1292;548035;-78
2023/09/28 08:57:40;;;;;;;12.10;4.80;;;;;;;;;;104219;1290;546600;-81
2023/09/28 09:01:10;;;;;;;12.00;5.50;;;;;;;;;;104200;1295;545029;-78
2023/09/28 09:04:53;;;;;;;19.30;5.10;;;;;;;;;;104247;1290;546789;-79
2023/09/28 09:08:27;;;;;;;19.10;6.20;;;;;;;;;;104346;1298;545473;-80
2023/09/28 09:12:07;;;;;;;11.60;4.80;;;;;;;;;;105184;1282;547814;-82
2023/09/28 09:15:46;;;;;;;13.80;5.80;;;;;;;;;;104064;1292;546814;-82
2023/09/28 09:19:17;;;;;;;16.20;5.60;;;;;;;;;;104312;1291;545441;-79
2023/09/28 09:22:55;;;;;;;15.60;7.20;;;;;;;;;;104304;1289;545620;-79
2023/09/28 09:26:41;;;;;;;20.80;6.90;;;;;;;;;;104351;1289;545723;-79
2023/09/28 09:30:20;;;;;;;11.10;5.50;;;;;;;;;;104187;1292;546096;-81
2023/09/28 09:33:49;;;;;;;14.60;5.50;;;;;;;;;;104474;1292;545519;-80
2023/09/28 09:37:27;;;;;;;14.70;5.30;;;;;;;;;;104539;1288;548562;-78
2023/09/28 09:41:05;;;;;;;12.50;5.50;;;;;;;;;;104378;1292;547954;-77
2023/09/28 09:44:48;;;;;;;13.50;4.80;;;;;;;;;;104302;1292;547409;-82
2023/09/28 09:48:24;;;;;;;12.40;6.30;;;;;;;;;;104510;1289;545419;-80
2023/09/28 09:52:05;;;;;;;13.90;5.20;;;;;;;;;;104377;1293;545758;-76
2023/09/28 09:55:40;;;;;;;47.40;6.80;;;;;;;;;;104461;1293;548124;-85
2023/09/28 09:59:16;;;;;;;15.80;4.90;;;;;;;;;;103984;1291;547951;-81
2023/09/28 10:02:53;;;;;;;12.00;4.90;;;;;;;;;;103782;1292;547778;-78
2023/09/28 10:06:21;;;;;;;17.40;4.50;;;;;;;;;;103801;1289;544949;-86
2023/09/28 10:10:05;;;;;;;14.40;4.90;;;;;;;;;;103806;1295;544857;-79
2023/09/28 10:13:49;;;;;;;15.10;4.50;;;;;;;;;;103403;1294;548440;-90
2023/09/28 10:17:26;;;;;;;15.70;4.20;;;;;;;;;;103729;1294;548189;-82
2023/09/28 10:21:02;;;;;;;11.30;4.60;;;;;;;;;;103579;1295;549336;-82
2023/09/28 10:24:40;;;;;;;20.20;5.60;;;;;;;;;;103614;1290;548028;-87
2023/09/28 10:28:17;;;;;;;11.00;4.50;;;;;;;;;;103690;1302;548101;-79
2023/09/28 10:31:56;;;;;;;20.40;4.90;;;;;;;;;;103617;1292;548392;-83
2023/09/28 10:35:33;;;;;;;10.80;4.20;;;;;;;;;;103542;1291;548243;-81
2023/09/28 10:39:11;;;;;;;11.00;3.90;;;;;;;;;;103721;1292;547977;-82
2023/09/28 10:43:04;;;;;;;10.50;4.10;;;;;;;;;;103626;1293;547829;-80
2023/09/28 10:46:24;;;;;;;12.10;3.90;;;;;;;;;;103621;1289;548610;-82
2023/09/28 10:50:05;;;;;;;13.30;4.60;;;;;;;;;;103498;1294;548241;-80
2023/09/28 10:53:41;;;;;;;12.70;4.60;;;;;;;;;;103611;1293;547823;-78
2023/09/28 10:57:17;;;;;;;10.80;4.90;;;;;;;;;;103651;1291;548141;-80
2023/09/28 11:00:49;;;;;;;10.40;4.50;;;;;;;;;;103808;1292;544732;-78
2023/09/28 11:04:32;;;;;;;11.20;6.70;;;;;;;;;;103677;1292;547947;-77
2023/09/28 11:08:10;;;;;;;16.60;4.70;;;;;;;;;;103708;1291;546157;-79
2023/09/28 11:11:49;;;;;;;9.60;4.70;;;;;;;;;;103698;1292;548345;-78
2023/09/28 11:15:19;;;;;;;12.30;3.90;;;;;;;;;;103752;1296;545004;-79
2023/09/28 11:19:03;;;;;;;12.10;4.20;;;;;;;;;;103711;1292;547979;-79
2023/09/28 11:22:36;;;;;;;13.10;4.40;;;;;;;;;;103717;1292;547966;-83
2023/09/28 11:26:17;;;;;;;11.30;4.00;;;;;;;;;;103671;1290;547916;-80
2023/09/28 11:29:58;;;;;;;9.70;4.70;;;;;;;;;;103677;1291;547798;-79
2023/09/28 11:33:28;;;;;;;12.40;4.40;;;;;;;;;;103877;1288;544966;-78
2023/09/28 11:37:10;;;;;;;11.80;3.80;;;;;;;;;;103575;1291;547914;-82
2023/09/28 11:40:48;;;;;;;9.30;4.20;;;;;;;;;;103943;1288;547852;-79
2023/09/28 11:44:28;;;;;;;12.20;3.90;;;;;;;;;;103652;1293;548041;-79
2023/09/28 11:48:05;;;;;;;11.30;4.30;;;;;;;;;;103605;1291;547812;-83
2023/09/28 11:51:39;;;;;;;30.30;20.10;;;;;;;;;;103881;1289;547928;-80
2023/09/28 11:55:12;;;;;;;9.90;4.40;;;;;;;;;;103747;1296;545452;-81
2023/09/28 11:58:55;;;;;;;10.60;3.90;;;;;;;;;;103638;1290;547945;-79
2023/09/28 12:02:32;;;;;;;13.60;4.40;;;;;;;;;;103525;1291;547809;-81
2023/09/28 12:06:10;;;;;;;14.10;4.40;;;;;;;;;;103622;1292;547898;-80
2023/09/28 12:09:46;;;;;;;16.00;5.10;;;;;;;;;;103657;1291;547926;-80
2023/09/28 12:13:24;;;;;;;12.40;4.30;;;;;;;;;;103602;1291;546619;-84
2023/09/28 12:17:03;;;;;;;11.60;4.50;;;;;;;;;;103526;1292;547964;-81
2023/09/28 12:20:35;;;;;;;11.70;4.60;;;;;;;;;;103772;1289;547935;-77
2023/09/28 12:34:36;;;;;;;15.80;7.60;;;;;;;;;;104613;1285;549930;-84
2023/09/28 12:37:36;;;;;;;27.20;12.90;;;;;;;;;;103787;1289;548082;-83
2023/09/28 12:41:11;;;;;;;15.40;7.50;;;;;;;;;;103679;1289;545401;-86
2023/09/28 12:44:50;;;;;;;12.00;5.10;;;;;;;;;;103664;1292;546294;-80
2023/09/28 12:48:26;;;;;;;13.40;6.00;;;;;;;;;;103343;1295;549203;-79
2023/09/28 12:52:04;;;;;;;14.50;5.60;;;;;;;;;;104020;1286;549023;-77
2023/09/28 12:55:42;;;;;;;14.20;5.10;;;;;;;;;;103654;1291;548122;-79
2023/09/28 12:59:19;;;;;;;11.00;5.40;;;;;;;;;;103696;1290;548772;-79
2023/09/28 13:02:57;;;;;;;11.90;4.90;;;;;;;;;;103388;1294;548111;-79
2023/09/28 13:06:30;;;;;;;9.30;4.60;;;;;;;;;;103561;1294;547745;-82
2023/09/28 13:10:21;;;;;;;12.10;5.20;;;;;;;;;;103925;1289;547791;-79
2023/09/28 13:13:49;;;;;;;9.60;4.70;;;;;;;;;;103554;1297;548229;-80
2023/09/28 13:17:18;;;;;;;11.80;5.00;;;;;;;;;;103819;1294;545657;-79
2023/09/28 13:21:07;;;;;;;10.60;4.60;;;;;;;;;;103551;1291;547776;-83
2023/09/28 13:24:39;;;;;;;11.10;4.50;;;;;;;;;;103824;1290;545469;-79
2023/09/28 13:28:22;;;;;;;10.10;4.50;;;;;;;;;;103828;1288;547957;-78
2023/09/28 13:32:01;;;;;;;11.20;4.10;;;;;;;;;;103746;1295;548137;-80
2023/09/28 13:35:32;;;;;;;8.90;4.70;;;;;;;;;;103497;1295;545415;-79
2023/09/28 13:39:27;;;;;;;11.50;4.30;;;;;;;;;;103623;1291;548079;-80
2023/09/28 13:42:53;;;;;;;13.50;4.90;;;;;;;;;;103554;1291;548739;-78
2023/09/28 13:46:29;;;;;;;10.50;4.90;;;;;;;;;;103547;1295;548467;-79
2023/09/28 13:50:10;;;;;;;8.90;4.70;;;;;;;;;;103565;1292;546624;-78
2023/09/28 13:53:44;;;;;;;12.50;4.60;;;;;;;;;;103705;1291;547856;-85
2023/09/28 13:57:21;;;;;;;9.40;5.30;;;;;;;;;;103533;1292;547754;-79
2023/09/28 14:00:59;;;;;;;11.60;5.40;;;;;;;;;;103635;1290;547826;-76
2023/09/28 14:04:36;;;;;;;12.00;5.00;;;;;;;;;;103551;1289;548278;-78
2023/09/28 14:08:14;;;;;;;13.90;5.10;;;;;;;;;;103676;1290;546003;-76
2023/09/28 14:11:42;;;;;;;15.30;4.80;;;;;;;;;;103716;1292;545564;-76
2023/09/28 14:15:25;;;;;;;12.70;5.20;;;;;;;;;;103808;1288;544819;-79
2023/09/28 14:19:08;;;;;;;15.90;6.20;;;;;;;;;;103608;1293;548278;-76
2023/09/28 14:22:40;;;;;;;9.20;5.00;;;;;;;;;;103848;1290;545395;-80
2023/09/28 14:26:18;;;;;;;10.50;4.50;;;;;;;;;;103736;1290;544942;-77
2023/09/28 14:30:00;;;;;;;12.00;4.60;;;;;;;;;;103551;1295;548074;-77
2023/09/28 14:33:32;;;;;;;10.60;4.70;;;;;;;;;;103737;1292;544862;-77
2023/09/28 14:37:09;;;;;;;10.00;4.60;;;;;;;;;;103985;1290;544976;-77
2023/09/28 14:40:47;;;;;;;9.80;4.20;;;;;;;;;;104040;1289;545029;-77
2023/09/28 14:44:31;;;;;;;13.10;4.80;;;;;;;;;;103641;1292;548003;-76
2023/09/28 14:48:08;;;;;;;11.60;4.70;;;;;;;;;;103557;1291;547953;-79
2023/09/28 14:51:45;;;;;;;11.50;4.80;;;;;;;;;;103470;1292;548041;-76
2023/09/28 14:55:22;;;;;;;10.30;4.60;;;;;;;;;;103947;1288;548107;-79
2023/09/28 14:59:00;;;;;;;9.90;4.80;;;;;;;;;;103476;1292;547768;-76
2023/09/28 15:02:32;;;;;;;10.90;4.70;;;;;;;;;;103940;1292;545141;-78
2023/09/28 15:06:15;;;;;;;10.40;4.60;;;;;;;;;;103453;1295;548572;-77
2023/09/28 15:09:52;;;;;;;13.30;4.60;;;;;;;;;;103665;1290;548201;-78
2023/09/28 15:13:28;;;;;;;10.60;4.80;;;;;;;;;;103677;1292;544924;-76
2023/09/28 15:17:04;;;;;;;10.70;4.90;;;;;;;;;;103677;1288;547768;-77
2023/09/28 15:20:41;;;;;;;11.60;4.50;;;;;;;;;;103756;1294;544698;-81
2023/09/28 15:24:22;;;;;;;8.80;4.90;;;;;;;;;;103334;1294;547961;-76
2023/09/28 15:27:59;;;;;;;12.20;5.20;;;;;;;;;;103623;1291;548449;-77
2023/09/28 15:31:38;;;;;;;9.50;4.40;;;;;;;;;;103593;1291;547795;-78
2023/09/28 15:35:08;;;;;;;12.30;5.20;;;;;;;;;;103793;1292;545492;-81
2023/09/28 15:38:57;;;;;;;29.50;9.90;;;;;;;;;;103602;1292;548152;-75
2023/09/28 15:42:35;;;;;;;11.40;5.10;;;;;;;;;;103484;1297;547900;-77
2023/09/28 15:46:06;;;;;;;10.00;4.40;;;;;;;;;;104027;1289;545697;-76
2023/09/28 15:49:44;;;;;;;11.10;4.50;;;;;;;;;;103722;1291;545057;-76
2023/09/28 15:53:21;;;;;;;9.20;4.50;;;;;;;;;;103854;1289;545635;-76
2023/09/28 15:57:04;;;;;;;14.60;5.00;;;;;;;;;;103640;1290;547787;-77
2023/09/28 16:00:33;;;;;;;15.60;5.80;;;;;;;;;;103889;1295;546005;-78
2023/09/28 16:04:22;;;;;;;9.60;4.90;;;;;;;;;;104190;1285;547925;-76
2023/09/28 16:07:59;;;;;;;11.80;4.90;;;;;;;;;;103572;1290;547796;-75
2023/09/28 16:11:38;;;;;;;11.00;4.80;;;;;;;;;;103468;1292;548048;-78
2023/09/28 16:15:14;;;;;;;11.50;5.10;;;;;;;;;;103372;1295;548014;-76
2023/09/28 16:18:46;;;;;;;11.10;5.20;;;;;;;;;;104134;1288;545485;-78
2023/09/28 16:22:29;;;;;;;12.50;5.10;;;;;;;;;;103587;1292;547962;-79
2023/09/28 16:26:01;;;;;;;23.30;6.90;;;;;;;;;;103674;1292;545512;-78
2023/09/28 16:29:39;;;;;;;15.50;7.50;;;;;;;;;;103733;1291;545118;-76
2023/09/28 16:33:19;;;;;;;12.00;5.60;;;;;;;;;;103541;1291;547677;-75
2023/09/28 16:36:53;;;;;;;58.90;16.20;;;;;;;;;;104109;1285;546034;-76
2023/09/28 16:40:35;;;;;;;25.50;8.70;;;;;;;;;;103672;1289;546873;-75
2023/09/28 16:44:11;;;;;;;24.70;9.90;;;;;;;;;;103847;1289;547937;-77
2023/09/28 16:48:00;;;;;;;41.70;14.40;;;;;;;;;;104032;1289;545811;-80
2023/09/28 16:51:30;;;;;;;39.20;14.60;;;;;;;;;;103559;1292;547815;-79
2023/09/28 16:55:05;;;;;;;22.80;10.10;;;;;;;;;;104138;1285;545747;-79
2023/09/28 16:58:39;;;;;;;27.50;11.50;;;;;;;;;;104011;1290;544803;-76
2023/09/28 17:02:26;;;;;;;29.70;12.40;;;;;;;;;;103675;1294;548128;-78
2023/09/28 17:05:53;;;;;;;25.60;11.80;;;;;;;;;;103767;1291;545682;-77
2023/09/28 17:09:33;;;;;;;33.80;12.80;;;;;;;;;;103668;1289;545482;-78
2023/09/28 17:13:08;;;;;;;34.90;12.60;;;;;;;;;;103796;1291;544767;-76
2023/09/28 17:17:09;;;;;;;30.50;11.30;;;;;;;;;;104072;1288;548105;-78
2023/09/28 17:20:30;;;;;;;29.70;12.30;;;;;;;;;;103441;1292;548088;-79
2023/09/28 17:24:02;;;;;;;25.40;12.80;;;;;;;;;;103657;1292;544903;-78
2023/09/28 17:27:38;;;;;;;26.20;11.60;;;;;;;;;;103843;1291;544900;-79
2023/09/28 17:31:22;;;;;;;30.40;11.90;;;;;;;;;;103599;1291;547849;-76
2023/09/28 17:34:59;;;;;;;29.00;12.50;;;;;;;;;;103594;1295;547644;-76
2023/09/28 17:38:31;;;;;;;28.60;11.70;;;;;;;;;;103829;1294;544726;-76
2023/09/28 17:42:08;;;;;;;31.40;15.60;;;;;;;;;;103729;1292;545871;-76
2023/09/28 17:45:48;;;;;;;32.70;15.90;;;;;;;;;;103801;1289;545889;-75
2023/09/28 17:49:23;;;;;;;36.50;18.00;;;;;;;;;;103762;1291;545045;-76
2023/09/28 17:53:06;;;;;;;34.20;17.50;;;;;;;;;;103687;1290;545222;-79
2023/09/28 17:56:43;;;;;;;33.60;16.70;;;;;;;;;;103690;1291;546177;-79
2023/09/28 18:00:22;;;;;;;31.90;16.60;;;;;;;;;;103393;1294;547975;-77
2023/09/28 18:03:53;;;;;;;30.30;16.40;;;;;;;;;;104231;1283;545537;-75
2023/09/28 18:07:30;;;;;;;26.10;13.90;;;;;;;;;;103694;1289;545061;-76
2023/09/28 18:11:08;;;;;;;21.20;11.00;;;;;;;;;;103824;1289;544786;-76
2023/09/28 18:14:46;;;;;;;20.40;10.50;;;;;;;;;;103747;1291;544958;-75
2023/09/28 18:18:22;;;;;;;20.60;10.20;;;;;;;;;;103788;1292;544975;-77
2023/09/28 18:21:56;;;;;;;17.60;8.60;;;;;;;;;;104667;1282;544716;-79
2023/09/28 18:25:36;;;;;;;16.40;8.40;;;;;;;;;;103887;1289;545092;-75
2023/09/28 18:29:20;;;;;;;15.80;8.20;;;;;;;;;;103640;1296;545044;-76
2023/09/28 18:33:18;;;;;;;13.40;8.10;;;;;;;;;;104101;1289;548211;-76
2023/09/28 18:36:36;;;;;;;15.40;8.50;;;;;;;;;;103571;1295;545428;-75
2023/09/28 18:40:19;;;;;;;16.80;8.30;;;;;;;;;;103735;1289;546834;-77
2023/09/28 18:43:50;;;;;;;14.50;8.80;;;;;;;;;;103955;1289;545052;-75
2023/09/28 18:47:28;;;;;;;18.20;9.00;;;;;;;;;;104088;1289;546007;-75
2023/09/28 18:51:07;;;;;;;15.60;8.60;;;;;;;;;;104014;1298;544851;-79
2023/09/28 18:55:03;;;;;;;14.20;9.20;;;;;;;;;;103805;1292;547043;-75
2023/09/28 18:58:26;;;;;;;17.30;8.50;;;;;;;;;;103584;1292;548018;-75
2023/09/28 19:02:03;;;;;;;15.20;9.10;;;;;;;;;;103650;1301;548308;-75
2023/09/28 19:05:40;;;;;;;17.40;9.50;;;;;;;;;;103709;1290;547791;-75
2023/09/28 19:09:32;;;;;;;17.30;9.30;;;;;;;;;;103699;1294;548083;-79
2023/09/28 19:12:55;;;;;;;18.40;9.60;;;;;;;;;;103551;1295;548260;-78
2023/09/28 19:16:34;;;;;;;16.70;9.40;;;;;;;;;;103558;1295;547801;-79
2023/09/28 19:20:06;;;;;;;16.80;8.50;;;;;;;;;;103813;1290;544787;-77
2023/09/28 19:24:05;;;;;;;15.80;8.20;;;;;;;;;;103538;1295;545245;-79
2023/09/28 19:27:25;;;;;;;17.70;7.60;;;;;;;;;;103553;1291;546467;-79
2023/09/28 19:30:58;;;;;;;17.80;9.40;;;;;;;;;;103733;1290;545473;-77
2023/09/28 19:34:34;;;;;;;15.00;8.80;;;;;;;;;;103758;1288;544952;-77
2023/09/28 19:38:08;;;;;;;18.70;8.70;;;;;;;;;;103828;1289;545932;-75
2023/09/28 19:41:51;;;;;;;16.30;8.20;;;;;;;;;;104119;1284;544977;-75
2023/09/28 19:45:34;;;;;;;20.00;9.20;;;;;;;;;;103723;1291;544933;-76
2023/09/28 19:49:06;;;;;;;14.40;7.80;;;;;;;;;;103922;1288;545415;-75
2023/09/28 19:52:50;;;;;;;16.60;8.40;;;;;;;;;;103583;1292;547756;-77
2023/09/28 19:56:22;;;;;;;20.30;9.00;;;;;;;;;;103599;1292;545189;-75
2023/09/28 19:59:58;;;;;;;25.30;9.00;;;;;;;;;;103782;1292;545366;-75
2023/09/28 20:03:36;;;;;;;17.00;8.00;;;;;;;;;;103755;1292;545069;-79
2023/09/28 20:07:14;;;;;;;16.00;8.90;;;;;;;;;;103849;1289;545495;-75
2023/09/28 20:10:56;;;;;;;15.60;8.10;;;;;;;;;;103617;1301;547972;-79
2023/09/28 20:14:55;;;;;;;15.90;9.20;;;;;;;;;;103663;1295;547908;-80
2023/09/28 20:18:11;;;;;;;19.60;9.30;;;;;;;;;;103624;1290;548539;-76
2023/09/28 20:21:43;;;;;;;17.60;9.60;;;;;;;;;;104840;1286;544939;-77
2023/09/28 20:25:22;;;;;;;16.50;9.50;;;;;;;;;;103685;1291;545597;-79
2023/09/28 20:28:59;;;;;;;17.00;9.20;;;;;;;;;;103753;1292;545887;-75
2023/09/28 20:32:35;;;;;;;17.70;9.70;;;;;;;;;;103606;1295;545379;-75
2023/09/28 20:36:11;;;;;;;18.10;9.50;;;;;;;;;;103696;1292;544977;-78
2023/09/28 20:39:50;;;;;;;15.80;10.00;;;;;;;;;;103753;1291;544940;-75
2023/09/28 20:43:28;;;;;;;18.50;10.60;;;;;;;;;;103690;1290;545001;-77
2023/09/28 20:47:11;;;;;;;20.60;11.80;;;;;;;;;;103606;1292;548032;-76
2023/09/28 20:50:43;;;;;;;17.60;10.80;;;;;;;;;;103968;1291;544925;-78
2023/09/28 20:54:26;;;;;;;18.50;10.90;;;;;;;;;;104205;1285;547764;-75
2023/09/28 20:57:58;;;;;;;19.80;10.90;;;;;;;;;;103952;1295;544977;-77
2023/09/28 21:01:35;;;;;;;21.60;10.40;;;;;;;;;;103779;1292;545999;-75
2023/09/28 21:05:13;;;;;;;18.40;10.60;;;;;;;;;;103794;1292;544803;-76